createdAt,value
2022-11-04T00:01:03.783Z,13.13
2022-11-04T00:03:32.505Z,10.52
2022-11-04T00:06:01.313Z,12.30
2022-11-04T00:08:28.690Z,11.32
2022-11-04T00:11:13.984Z,14.15
2022-11-04T00:13:42.101Z,13.23
2022-11-04T00:16:27.172Z,13.27
2022-11-04T00:18:55.890Z,11.45
2022-11-04T00:21:40.962Z,12.27
2022-11-04T00:24:28.296Z,13.25
2022-11-04T00:27:13.146Z,10.70
2022-11-04T00:29:40.563Z,12.25
2022-11-04T00:32:25.773Z,13.07
2022-11-04T00:34:54.427Z,13.13
2022-11-04T00:37:21.865Z,12.02
2022-11-04T00:39:49.220Z,12.88
2022-11-04T00:42:16.583Z,15.40
2022-11-04T00:44:43.995Z,11.52
2022-11-04T00:47:11.382Z,12.77
2022-11-04T00:49:38.746Z,14.95
2022-11-04T00:52:07.394Z,12.30
2022-11-04T00:54:34.751Z,14.88
2022-11-04T00:57:02.161Z,14.23
2022-11-04T00:59:29.545Z,13.85
2022-11-04T01:01:57.270Z,12.30
2022-11-04T01:04:24.694Z,14.02
2022-11-04T01:06:52.114Z,11.10
2022-11-04T01:09:20.840Z,13.30
2022-11-04T01:11:48.486Z,15.98
2022-11-04T01:14:16.110Z,15.07
2022-11-04T01:16:43.473Z,12.02
2022-11-04T01:19:11.036Z,14.68
2022-11-04T01:21:38.418Z,16.83
2022-11-04T01:24:06.212Z,12.55
2022-11-04T01:26:34.948Z,13.60
2022-11-04T01:29:02.290Z,12.38
2022-11-04T01:31:30.925Z,14.38
2022-11-04T01:33:59.077Z,13.02
2022-11-04T01:36:26.906Z,14.85
2022-11-04T01:38:55.554Z,16.58
2022-11-04T01:41:23.986Z,15.68
2022-11-04T01:43:53.426Z,14.02
2022-11-04T01:46:24.021Z,14.05
2022-11-04T01:48:52.244Z,19.65
2022-11-04T01:51:20.302Z,12.63
2022-11-04T01:53:49.908Z,15.63
2022-11-04T01:56:17.841Z,13.15
2022-11-04T01:58:47.178Z,18.13
2022-11-04T02:01:15.966Z,12.52
2022-11-04T02:03:47.018Z,14.13
2022-11-04T02:06:15.008Z,28.27
2022-11-04T02:08:43.004Z,16.25
2022-11-04T02:11:11.416Z,13.27
2022-11-04T02:13:37.840Z,12.98
2022-11-04T02:16:09.706Z,13.73
2022-11-04T02:18:45.009Z,16.98
2022-11-04T02:21:24.153Z,21.13
2022-11-04T02:24:03.582Z,13.98
2022-11-04T02:26:40.642Z,14.65
2022-11-04T02:29:21.102Z,14.70
2022-11-04T02:31:52.593Z,14.75
2022-11-04T02:34:22.882Z,15.90
2022-11-04T02:36:59.509Z,14.30
2022-11-04T02:39:33.724Z,19.55
2022-11-04T02:42:05.397Z,14.32
2022-11-04T02:44:36.453Z,15.15
2022-11-04T02:47:05.953Z,14.85
2022-11-04T02:49:36.953Z,16.35
2022-11-04T02:52:06.699Z,16.85
2022-11-04T02:54:37.272Z,14.63
2022-11-04T02:57:07.592Z,11.70
2022-11-04T02:59:37.995Z,15.32
2022-11-04T03:02:07.656Z,13.95
2022-11-04T03:04:38.204Z,19.55
2022-11-04T03:07:06.901Z,15.63
2022-11-04T03:09:35.751Z,15.10
2022-11-04T03:12:04.321Z,16.00
2022-11-04T03:14:36.021Z,14.15
2022-11-04T03:17:07.082Z,14.07
2022-11-04T03:19:39.837Z,16.77
2022-11-04T03:22:09.501Z,13.55
2022-11-04T03:24:36.902Z,14.30
2022-11-04T03:27:08.038Z,12.93
2022-11-04T03:32:08.902Z,13.23
2022-11-04T03:34:37.466Z,15.60
2022-11-04T03:37:04.928Z,18.05
2022-11-04T03:39:32.617Z,13.60
2022-11-04T03:42:01.518Z,14.38
2022-11-04T03:44:30.324Z,13.68
2022-11-04T03:46:58.034Z,16.08
2022-11-04T03:49:27.192Z,14.70
2022-11-04T03:51:54.576Z,13.88
2022-11-04T03:54:22.018Z,14.23
2022-11-04T03:57:20.180Z,15.30
2022-11-04T04:00:02.207Z,15.38
2022-11-04T04:02:35.554Z,13.40
2022-11-04T04:05:07.980Z,18.92
2022-11-04T04:07:36.833Z,17.05
2022-11-04T04:10:29.509Z,14.48
2022-11-04T04:12:58.842Z,16.42
2022-11-04T04:15:28.624Z,15.68
2022-11-04T04:17:57.179Z,19.73
2022-11-04T04:20:27.724Z,17.60
2022-11-04T04:22:56.585Z,13.13
2022-11-04T04:25:42.825Z,15.77
2022-11-04T04:28:11.768Z,14.35
2022-11-04T04:30:39.815Z,13.75
2022-11-04T04:33:09.047Z,15.07
2022-11-04T04:35:44.177Z,10.63
2022-11-04T04:38:34.393Z,15.10
2022-11-04T04:41:21.794Z,15.98
2022-11-04T04:44:06.508Z,12.30
2022-11-04T04:46:34.144Z,14.00
2022-11-04T04:49:05.021Z,15.02
2022-11-04T04:51:34.571Z,17.50
2022-11-04T04:54:01.915Z,15.90
2022-11-04T04:56:29.885Z,12.95
2022-11-04T04:58:57.291Z,13.98
2022-11-04T05:01:24.991Z,17.13
2022-11-04T05:03:52.439Z,12.23
2022-11-04T05:06:19.809Z,16.80
2022-11-04T05:08:48.543Z,14.13
2022-11-04T05:11:15.924Z,12.95
2022-11-04T05:13:43.333Z,16.75
2022-11-04T05:16:11.413Z,14.02
2022-11-04T05:18:38.821Z,13.13
2022-11-04T05:21:06.595Z,12.77
2022-11-04T05:23:34.108Z,15.07
2022-11-04T05:26:02.824Z,13.57
2022-11-04T05:28:30.344Z,15.07
2022-11-04T05:30:57.770Z,14.98
2022-11-04T05:33:25.184Z,15.35
2022-11-04T05:35:52.540Z,19.00
2022-11-04T05:38:19.919Z,18.95
2022-11-04T05:40:47.373Z,16.35
2022-11-04T05:43:16.064Z,15.80
2022-11-04T05:45:43.401Z,14.13
2022-11-04T05:48:10.780Z,17.05
2022-11-04T05:50:38.350Z,16.17
2022-11-04T05:53:05.887Z,16.33
2022-11-04T05:55:33.346Z,15.35
2022-11-04T05:58:00.749Z,13.93
2022-11-04T06:00:29.852Z,15.07
2022-11-04T06:02:58.176Z,14.43
2022-11-04T06:05:25.881Z,14.35
2022-11-04T06:07:53.282Z,13.30
2022-11-04T06:10:20.633Z,22.65
2022-11-04T06:12:48.030Z,17.38
2022-11-04T06:15:15.493Z,20.80
2022-11-04T06:17:44.233Z,20.83
2022-11-04T06:20:11.884Z,20.42
2022-11-04T06:22:39.234Z,16.83
2022-11-04T06:25:06.786Z,15.52
2022-11-04T06:27:34.131Z,15.55
2022-11-04T06:30:01.758Z,15.13
2022-11-04T06:32:29.115Z,23.17
2022-11-04T06:34:57.945Z,17.90
2022-11-04T06:37:25.309Z,15.80
2022-11-04T06:39:52.694Z,17.13
2022-11-04T06:42:20.088Z,19.17
2022-11-04T06:44:47.480Z,14.68
2022-11-04T06:47:14.843Z,15.38
2022-11-04T06:49:42.217Z,16.10
2022-11-04T06:52:10.886Z,17.83
2022-11-04T06:54:38.332Z,21.27
2022-11-04T06:57:05.750Z,16.52
2022-11-04T06:59:33.105Z,20.65
2022-11-04T07:02:00.598Z,16.23
2022-11-04T07:04:28.020Z,17.33
2022-11-04T07:06:55.377Z,19.05
2022-11-04T07:09:24.068Z,13.02
2022-11-04T07:11:51.424Z,21.65
2022-11-04T07:14:18.760Z,15.23
2022-11-04T07:16:46.185Z,16.38
2022-11-04T07:19:13.629Z,17.83
2022-11-04T07:21:41.034Z,13.57
2022-11-04T07:24:08.445Z,14.30
2022-11-04T07:26:37.276Z,17.48
2022-11-04T07:29:06.582Z,14.98
2022-11-04T07:31:34.224Z,17.13
2022-11-04T07:34:02.978Z,14.18
2022-11-04T07:36:30.501Z,13.43
2022-11-04T07:38:57.835Z,17.92
2022-11-04T07:41:25.209Z,16.23
2022-11-04T07:43:54.856Z,15.80
2022-11-04T07:46:22.540Z,20.98
2022-11-04T07:48:49.920Z,18.63
2022-11-04T07:51:19.227Z,16.13
2022-11-04T07:53:46.629Z,19.92
2022-11-04T07:56:14.491Z,17.20
2022-11-04T07:58:42.080Z,17.42
2022-11-04T08:01:11.792Z,20.50
2022-11-04T08:03:39.481Z,21.33
2022-11-04T08:06:07.678Z,16.05
2022-11-04T08:08:35.399Z,17.13
2022-11-04T08:11:04.529Z,19.10
2022-11-04T08:13:32.651Z,14.77
2022-11-04T08:16:02.290Z,15.73
2022-11-04T08:18:31.357Z,14.57
2022-11-04T08:20:58.890Z,16.88
2022-11-04T08:23:26.433Z,15.23
2022-11-04T08:25:53.808Z,15.90
2022-11-04T08:28:21.321Z,14.20
2022-11-04T08:30:54.994Z,14.30
2022-11-04T08:33:22.733Z,14.65
2022-11-04T08:35:51.602Z,16.08
2022-11-04T08:38:18.973Z,17.50
2022-11-04T08:40:46.373Z,14.00
2022-11-04T08:43:13.789Z,17.15
2022-11-04T08:45:42.050Z,16.92
2022-11-04T08:48:09.812Z,14.13
2022-11-04T08:50:37.468Z,15.98
2022-11-04T08:53:07.169Z,15.50
2022-11-04T08:55:35.143Z,17.10
2022-11-04T08:58:03.018Z,15.05
2022-11-04T09:00:30.410Z,19.30
2022-11-04T09:02:57.774Z,18.00
2022-11-04T09:05:25.158Z,16.13
2022-11-04T09:07:52.538Z,16.10
2022-11-04T09:10:21.301Z,15.65
2022-11-04T09:12:48.749Z,16.17
2022-11-04T09:15:16.199Z,14.05
2022-11-04T09:17:44.661Z,15.70
2022-11-04T09:20:12.588Z,14.68
2022-11-04T09:22:45.466Z,14.15
2022-11-04T09:25:13.228Z,14.02
2022-11-04T09:27:41.975Z,15.02
2022-11-04T09:30:10.003Z,13.52
2022-11-04T09:32:37.365Z,13.10
2022-11-04T09:35:06.224Z,11.57
2022-11-04T09:37:33.615Z,12.73
2022-11-04T09:40:00.949Z,12.85
2022-11-04T09:42:37.353Z,12.38
2022-11-04T09:45:26.012Z,11.98
2022-11-04T09:47:56.136Z,12.10
2022-11-04T09:50:25.275Z,8.48
2022-11-04T09:52:55.709Z,11.82
2022-11-04T09:55:27.009Z,10.45
2022-11-04T09:57:55.533Z,9.65
2022-11-04T10:00:24.300Z,12.30
2022-11-04T10:02:56.074Z,9.07
2022-11-04T10:05:33.178Z,9.60
2022-11-04T10:08:05.805Z,7.75
2022-11-04T10:10:37.222Z,10.20
2022-11-04T10:13:12.896Z,7.22
2022-11-04T10:15:53.188Z,10.70
2022-11-04T10:18:28.448Z,9.07
2022-11-04T10:20:59.513Z,9.70
2022-11-04T10:23:28.857Z,8.18
2022-11-04T10:25:59.412Z,9.48
2022-11-04T10:28:31.380Z,10.68
2022-11-04T10:31:01.149Z,7.95
2022-11-04T10:33:31.852Z,8.07
2022-11-04T10:36:01.834Z,11.25
2022-11-04T10:38:32.906Z,8.55
2022-11-04T10:41:04.490Z,10.10
2022-11-04T10:43:36.989Z,8.43
2022-11-04T10:46:10.968Z,10.70
2022-11-04T10:48:42.550Z,9.90
2022-11-04T10:51:09.967Z,10.98
2022-11-04T10:53:37.708Z,9.25
2022-11-04T10:56:07.901Z,11.20
2022-11-04T10:58:36.321Z,12.25
2022-11-04T11:01:23.230Z,9.95
2022-11-04T11:03:52.023Z,10.65
2022-11-04T11:06:25.502Z,10.68
2022-11-04T11:08:53.462Z,11.10
2022-11-04T11:11:36.089Z,9.77
2022-11-04T11:14:03.713Z,10.20
2022-11-04T11:16:31.838Z,10.55
2022-11-04T11:19:14.356Z,10.27
2022-11-04T11:21:43.510Z,10.57
2022-11-04T11:24:14.437Z,10.10
2022-11-04T11:26:48.006Z,8.88
2022-11-04T11:29:20.781Z,9.95
2022-11-04T11:31:48.410Z,9.25
2022-11-04T11:34:20.208Z,10.15
2022-11-04T11:36:48.123Z,9.15
2022-11-04T11:39:17.474Z,11.77
2022-11-04T11:41:56.864Z,10.05
2022-11-04T11:44:27.253Z,9.90
2022-11-04T11:46:56.114Z,11.43
2022-11-04T11:49:26.042Z,9.88
2022-11-04T11:51:53.463Z,9.85
2022-11-04T11:54:23.676Z,8.25
2022-11-04T11:57:12.690Z,9.02
2022-11-04T12:02:35.090Z,8.73
2022-11-04T12:10:51.305Z,15.40
2022-11-04T12:13:26.417Z,10.55
2022-11-04T12:16:00.977Z,15.65
2022-11-04T12:18:37.611Z,12.23
2022-11-04T12:21:09.650Z,13.50
2022-11-04T12:23:40.201Z,13.18
2022-11-04T12:26:14.132Z,12.93
2022-11-04T12:28:46.833Z,11.02
2022-11-04T12:31:20.625Z,12.77
2022-11-04T12:33:50.532Z,13.55
2022-11-04T12:36:33.268Z,12.30
2022-11-04T12:39:12.413Z,12.45
2022-11-04T12:42:06.811Z,12.07
2022-11-04T12:47:02.167Z,14.95
2022-11-04T12:49:38.370Z,17.33
2022-11-04T12:52:10.428Z,14.25
2022-11-04T12:54:43.781Z,13.93
2022-11-04T12:57:14.364Z,15.43
2022-11-04T12:59:48.604Z,12.52
2022-11-04T13:02:18.785Z,16.15
2022-11-04T13:04:49.986Z,19.95
2022-11-04T13:07:21.668Z,15.45
2022-11-04T13:09:53.943Z,13.20
2022-11-04T13:12:23.066Z,13.15
2022-11-04T13:14:53.140Z,11.45
2022-11-04T13:17:22.939Z,14.45
2022-11-04T13:19:51.734Z,17.45
2022-11-04T13:22:23.049Z,13.07
2022-11-04T13:24:52.978Z,13.40
2022-11-04T13:27:21.748Z,12.88
2022-11-04T13:29:50.826Z,13.32
2022-11-04T13:32:21.849Z,11.32
2022-11-04T13:34:53.048Z,12.07
2022-11-04T13:37:25.172Z,15.43
2022-11-04T13:39:55.165Z,13.02
2022-11-04T13:42:37.317Z,12.25
2022-11-04T13:45:06.744Z,11.25
2022-11-04T13:47:37.338Z,12.25
2022-11-04T13:50:05.081Z,12.05
2022-11-04T13:52:36.218Z,14.70
2022-11-04T13:55:05.121Z,12.77
2022-11-04T13:57:33.301Z,13.00
2022-11-04T14:00:09.375Z,12.60
2022-11-04T14:02:41.240Z,10.98
2022-11-04T14:05:27.499Z,11.05
2022-11-04T14:08:10.820Z,13.15
2022-11-04T14:10:39.298Z,11.35
2022-11-04T14:13:25.490Z,12.90
2022-11-04T14:16:00.085Z,12.57
2022-11-04T14:18:28.482Z,12.38
2022-11-04T14:21:02.677Z,13.23
2022-11-04T14:23:31.684Z,15.63
2022-11-04T14:26:00.413Z,13.40
2022-11-04T14:28:29.514Z,15.73
2022-11-04T14:30:57.850Z,14.10
2022-11-04T14:33:33.420Z,17.33
2022-11-04T14:36:15.793Z,13.07
2022-11-04T14:38:44.773Z,17.15
2022-11-04T14:41:13.529Z,13.35
2022-11-04T14:43:42.580Z,13.30
2022-11-04T14:46:12.344Z,12.68
2022-11-04T14:48:43.842Z,14.45
2022-11-04T14:51:23.073Z,15.82
2022-11-04T14:53:52.277Z,12.52
2022-11-04T14:56:24.243Z,13.20
2022-11-04T14:58:58.849Z,13.65
2022-11-04T15:01:32.875Z,14.73
2022-11-04T15:04:11.992Z,14.48
2022-11-04T15:06:54.387Z,14.85
2022-11-04T15:09:24.779Z,12.70
2022-11-04T15:12:10.685Z,15.02
2022-11-04T15:14:38.275Z,14.02
2022-11-04T15:17:06.026Z,13.93
2022-11-04T15:19:35.352Z,16.80
2022-11-04T15:22:03.656Z,15.65
2022-11-04T15:24:32.587Z,15.65
2022-11-04T15:27:02.078Z,15.15
2022-11-04T15:29:29.501Z,13.88
2022-11-04T15:31:58.213Z,14.07
2022-11-04T15:34:26.921Z,15.40
2022-11-04T15:36:55.675Z,13.30
2022-11-04T15:39:24.460Z,13.80
2022-11-04T15:42:12.344Z,14.13
2022-11-04T15:44:39.833Z,17.08
2022-11-04T15:47:22.976Z,13.02
2022-11-04T15:49:51.965Z,12.75
2022-11-04T15:52:21.130Z,14.38
2022-11-04T15:54:49.469Z,15.48
2022-11-04T15:57:19.299Z,13.90
2022-11-04T15:59:47.426Z,15.45
2022-11-04T16:02:21.738Z,16.38
2022-11-04T16:05:02.199Z,14.27
2022-11-04T16:07:32.307Z,15.05
2022-11-04T16:10:01.160Z,14.45
2022-11-04T16:12:37.087Z,14.27
2022-11-04T16:15:04.720Z,15.80
2022-11-04T16:17:32.479Z,16.42
2022-11-04T16:20:01.444Z,12.68
2022-11-04T16:22:30.368Z,15.25
2022-11-04T16:24:58.727Z,13.75
2022-11-04T16:27:26.312Z,14.15
2022-11-04T16:30:02.354Z,15.00
2022-11-04T16:32:31.104Z,12.48
2022-11-04T16:34:59.931Z,13.73
2022-11-04T16:37:27.362Z,13.73
2022-11-04T16:39:54.765Z,14.93
2022-11-04T16:42:22.969Z,12.75
2022-11-04T16:44:51.057Z,16.50
2022-11-04T16:47:20.125Z,14.38
2022-11-04T16:49:47.554Z,16.27
2022-11-04T16:52:25.409Z,16.55
2022-11-04T16:54:56.044Z,15.50
2022-11-04T16:57:23.973Z,13.45
2022-11-04T16:59:51.330Z,14.60
2022-11-04T17:02:22.187Z,13.05
2022-11-04T17:04:49.771Z,11.65
2022-11-04T17:07:17.148Z,15.40
2022-11-04T17:09:44.521Z,15.48
2022-11-04T17:12:11.860Z,12.70
2022-11-04T17:14:39.283Z,12.80
2022-11-04T17:17:06.859Z,12.48
2022-11-04T17:19:35.733Z,13.15
2022-11-04T17:22:05.045Z,16.70
2022-11-04T17:24:32.705Z,14.20
2022-11-04T17:27:00.119Z,14.50
2022-11-04T17:29:27.579Z,13.90
2022-11-04T17:31:55.709Z,13.68
2022-11-04T17:34:25.789Z,17.42
2022-11-04T17:36:54.613Z,14.55
2022-11-04T17:39:22.027Z,15.85
2022-11-04T17:42:06.830Z,16.95
2022-11-04T17:44:34.201Z,14.10
2022-11-04T17:47:01.562Z,13.00
2022-11-04T17:49:29.483Z,14.65
2022-11-04T17:52:00.560Z,15.38
2022-11-04T17:54:29.227Z,16.13
2022-11-04T17:56:56.784Z,13.65
2022-11-04T17:59:24.805Z,14.70
2022-11-04T18:01:52.312Z,16.08
2022-11-04T18:04:20.531Z,13.48
2022-11-04T18:06:48.234Z,17.23
2022-11-04T18:09:17.317Z,16.42
2022-11-04T18:12:02.974Z,14.13
2022-11-04T18:14:30.399Z,16.83
2022-11-04T18:16:58.103Z,16.00
2022-11-04T18:19:27.069Z,14.13
2022-11-04T18:21:54.646Z,14.95
2022-11-04T18:24:24.320Z,17.92
2022-11-04T18:26:52.106Z,14.57
2022-11-04T18:29:21.245Z,14.20
2022-11-04T18:31:49.834Z,15.45
2022-11-04T18:34:19.312Z,16.05
2022-11-04T18:36:47.317Z,14.10
2022-11-04T18:39:16.126Z,15.68
2022-11-04T18:41:45.633Z,17.45
2022-11-04T18:44:15.098Z,17.65
2022-11-04T18:46:42.544Z,15.25
2022-11-04T18:49:10.506Z,16.25
2022-11-04T18:51:38.000Z,17.58
2022-11-04T18:54:06.680Z,17.88
2022-11-04T18:56:34.417Z,18.27
2022-11-04T18:59:03.797Z,15.70
2022-11-04T19:01:32.289Z,17.98
2022-11-04T19:04:00.321Z,16.52
2022-11-04T19:06:29.271Z,16.58
2022-11-04T19:08:57.030Z,17.63
2022-11-04T19:11:26.044Z,21.48
2022-11-04T19:13:54.295Z,20.73
2022-11-04T19:16:23.564Z,18.88
2022-11-04T19:18:51.092Z,24.17
2022-11-04T19:21:20.323Z,18.83
2022-11-04T19:23:47.953Z,19.13
2022-11-04T19:26:16.745Z,19.00
2022-11-04T19:28:48.621Z,20.67
2022-11-04T19:31:18.032Z,21.35
2022-11-04T19:33:46.999Z,20.50
2022-11-04T19:36:15.492Z,21.73
2022-11-04T19:38:43.629Z,21.85
2022-11-04T19:41:33.185Z,20.80
2022-11-04T19:44:01.244Z,19.33
2022-11-04T19:46:29.057Z,18.27
2022-11-04T19:48:58.201Z,22.88
2022-11-04T19:51:31.627Z,22.73
2022-11-04T19:53:59.648Z,23.80
2022-11-04T19:56:27.376Z,26.73
2022-11-04T19:58:55.073Z,21.73
2022-11-04T20:01:22.544Z,26.88
2022-11-04T20:03:50.935Z,25.17
2022-11-04T20:06:20.168Z,22.80
2022-11-04T20:08:48.891Z,22.75
2022-11-04T20:11:16.643Z,24.48
2022-11-04T20:13:47.094Z,24.77
2022-11-04T20:16:18.591Z,23.98
2022-11-04T20:18:46.885Z,22.17
2022-11-04T20:21:14.604Z,21.02
2022-11-04T20:23:44.021Z,23.40
2022-11-04T20:26:17.582Z,16.52
2022-11-04T20:28:48.257Z,18.45
2022-11-04T20:31:18.151Z,22.88
2022-11-04T20:33:46.019Z,20.90
2022-11-04T20:36:14.235Z,21.65
2022-11-04T20:38:43.069Z,24.02
2022-11-04T20:41:11.170Z,18.27
2022-11-04T20:43:38.968Z,20.35
2022-11-04T20:46:07.656Z,21.02
2022-11-04T20:48:36.047Z,18.40
2022-11-04T20:51:07.332Z,19.90
2022-11-04T20:53:34.839Z,21.70
2022-11-04T20:56:06.395Z,18.05
2022-11-04T20:58:34.537Z,23.60
2022-11-04T21:01:03.074Z,19.15
2022-11-04T21:03:30.566Z,20.02
2022-11-04T21:05:58.209Z,16.98
2022-11-04T21:08:25.568Z,18.92
2022-11-04T21:10:53.374Z,20.17
2022-11-04T21:13:22.524Z,20.25
2022-11-04T21:15:51.764Z,19.83
2022-11-04T21:18:19.197Z,23.55
2022-11-04T21:20:46.589Z,20.88
2022-11-04T21:23:14.640Z,19.02
2022-11-04T21:25:42.557Z,19.27
2022-11-04T21:28:10.470Z,24.25
2022-11-04T21:30:40.482Z,24.20
2022-11-04T21:33:08.071Z,20.92
2022-11-04T21:35:35.896Z,22.25
2022-11-04T21:38:03.394Z,23.05
2022-11-04T21:40:31.083Z,16.58
2022-11-04T21:42:58.493Z,26.92
2022-11-04T21:45:26.238Z,20.50
2022-11-04T21:47:54.946Z,28.30
2022-11-04T21:50:22.354Z,19.85
2022-11-04T21:52:49.764Z,19.48
2022-11-04T21:55:17.148Z,18.48
2022-11-04T21:57:44.477Z,18.85
2022-11-04T22:00:13.904Z,20.40
2022-11-04T22:02:43.439Z,16.67
2022-11-04T22:05:12.660Z,19.08
2022-11-04T22:07:57.516Z,22.80
2022-11-04T22:10:25.726Z,20.92
2022-11-04T22:12:53.194Z,18.10
2022-11-04T22:15:34.509Z,20.75
2022-11-04T22:18:01.909Z,24.52
2022-11-04T22:20:30.633Z,20.77
2022-11-04T22:22:58.179Z,18.60
2022-11-04T22:25:25.555Z,20.58
2022-11-04T22:27:52.936Z,21.98
2022-11-04T22:30:20.345Z,19.67
2022-11-04T22:32:47.723Z,24.30
2022-11-04T22:35:15.180Z,19.60
2022-11-04T22:37:43.952Z,22.92
2022-11-04T22:40:11.753Z,20.13
2022-11-04T22:42:39.163Z,20.58
2022-11-04T22:45:08.378Z,22.25
2022-11-04T22:47:37.556Z,21.42
2022-11-04T22:50:05.288Z,22.38
2022-11-04T22:52:32.711Z,25.85
2022-11-04T22:55:01.401Z,23.20
2022-11-04T22:57:28.842Z,19.80
2022-11-04T22:59:56.261Z,18.90
2022-11-04T23:02:23.814Z,19.50
2022-11-04T23:04:51.233Z,16.58
2022-11-04T23:07:18.657Z,18.30
2022-11-04T23:10:03.750Z,17.50
2022-11-04T23:12:49.771Z,20.20
2022-11-04T23:15:34.832Z,18.92
2022-11-04T23:18:19.657Z,19.48
2022-11-04T23:21:07.173Z,17.70
2022-11-04T23:23:52.173Z,19.30
2022-11-04T23:26:22.477Z,16.98
2022-11-04T23:29:12.902Z,16.67
2022-11-04T23:31:40.596Z,18.10
2022-11-04T23:34:25.428Z,19.10
2022-11-04T23:37:10.076Z,20.58
2022-11-04T23:39:37.432Z,18.73
2022-11-04T23:42:20.062Z,18.05
2022-11-04T23:45:07.325Z,19.02
2022-11-04T23:47:53.028Z,19.10
2022-11-04T23:50:38.248Z,19.08
2022-11-04T23:53:23.518Z,18.30
2022-11-04T23:56:08.837Z,20.85
2022-11-04T23:58:53.648Z,20.60
